Time;durP1;ratioP1;P1;durP2;ratioP2;P2;SDS_P1;SDS_P2;PMS_P1;PMS_P2;Temp;Humidity;BMP_temperature;BMP_pressure;BME280_temperature;BME280_humidity;BME280_pressure;Samples;Min_cycle;Max_cycle;Signal;HPM_P1;HPM_P2
2022/11/16 00:00:38;;;;;;;1.02;0.93;;;;;;;10.96;71.37;99961.78;18563824;32;20104;-57
2022/11/16 00:10:42;;;;;;;1.80;1.52;;;;;;;11.27;70.34;99944.84;18563614;32;20110;-57
2022/11/16 00:20:45;;;;;;;0.60;0.60;;;;;;;11.19;70.61;99938.00;18563528;32;20161;-57
2022/11/16 00:30:58;;;;;;;1.75;0.93;;;;;;;11.18;70.64;99936.25;18562959;32;20156;-58
2022/11/16 00:41:01;;;;;;;1.40;1.30;;;;;;;11.14;70.79;99912.78;18562544;32;20165;-58
2022/11/16 00:51:06;;;;;;;4.10;0.98;;;;;;;11.19;70.70;99897.94;18562227;31;20119;-58
2022/11/16 01:01:11;;;;;;;1.98;1.85;;;;;;;11.20;70.63;99900.53;18561621;32;20136;-57
2022/11/16 01:21:37;;;;;;;2.08;1.87;;;;;;;11.21;70.50;99852.62;18561311;32;20096;-57
2022/11/16 01:31:42;;;;;;;1.20;0.95;;;;;;;11.14;70.70;99850.97;18560614;32;20124;-58
2022/11/16 01:41:45;;;;;;;0.50;0.50;;;;;;;11.15;70.71;99837.03;18561430;32;20106;-58
2022/11/16 01:51:52;;;;;;;1.62;1.55;;;;;;;11.14;70.78;99830.06;18560456;32;20716;-57
2022/11/16 02:01:56;;;;;;;1.50;1.17;;;;;;;11.31;70.12;99810.69;18561000;32;20134;-58
2022/11/16 02:12:12;;;;;;;6.53;1.58;;;;;;;11.17;70.88;99788.22;18559416;32;20187;-57
2022/11/16 02:22:20;;;;;;;1.12;0.95;;;;;;;11.16;71.08;99788.25;18559351;32;20092;-58
2022/11/16 02:32:28;;;;;;;1.12;1.08;;;;;;;11.31;70.64;99774.94;18558054;32;20081;-58
2022/11/16 02:42:35;;;;;;;9.95;3.75;;;;;;;11.30;70.46;99760.16;18556717;32;20136;-58
2022/11/16 02:52:40;;;;;;;3.22;1.23;;;;;;;11.15;71.16;99745.59;18566211;32;20085;-57
2022/11/16 03:02:48;;;;;;;1.70;1.08;;;;;;;11.31;70.85;99737.53;18565469;32;20147;-58
2022/11/16 03:12:53;;;;;;;1.50;1.40;;;;;;;11.29;70.95;99729.69;18565235;31;20092;-57
2022/11/16 03:22:59;;;;;;;1.58;0.77;;;;;;;11.44;70.37;99722.50;18565020;32;20132;-58
2022/11/16 03:33:08;;;;;;;0.65;0.65;;;;;;;11.40;70.66;99716.47;18564562;31;20088;-58
2022/11/16 03:43:12;;;;;;;1.10;1.00;;;;;;;11.38;70.75;99699.94;18563979;32;20107;-57
2022/11/16 03:53:16;;;;;;;0.90;0.90;;;;;;;11.14;71.32;99696.84;18564080;32;20183;-58
2022/11/16 04:03:20;;;;;;;1.20;1.12;;;;;;;11.42;70.55;99690.28;18564772;32;20112;-58
2022/11/16 04:54:53;;;;;;;0.50;0.40;;;;;;;10.96;72.31;99637.94;18562454;32;20141;-58
2022/11/16 05:04:56;;;;;;;4.90;1.77;;;;;;;11.24;71.31;99638.34;18562245;32;20100;-57
2022/11/16 05:15:01;;;;;;;0.50;0.50;;;;;;;11.38;70.71;99634.59;18561326;31;20115;-58
2022/11/16 05:25:05;;;;;;;1.42;0.82;;;;;;;11.31;71.04;99623.41;18562617;32;20375;-57
2022/11/16 05:35:10;;;;;;;0.68;0.68;;;;;;;10.73;72.87;99626.09;18560892;32;20105;-57
2022/11/16 05:45:13;;;;;;;1.85;1.40;;;;;;;11.17;71.31;99612.34;18589239;31;20104;-58
2022/11/16 05:55:24;;;;;;;0.70;0.70;;;;;;;11.14;71.42;99596.72;18588179;31;20151;-58
2022/11/16 06:05:27;;;;;;;1.67;1.25;;;;;;;11.33;70.95;99594.66;18589022;31;20088;-58
2022/11/16 06:15:31;;;;;;;0.50;0.50;;;;;;;11.41;70.55;99569.22;18614779;31;20144;-57
2022/11/16 06:25:35;;;;;;;3.85;1.33;;;;;;;11.38;70.73;99574.50;18586487;31;20533;-57
2022/11/16 06:35:39;;;;;;;0.68;0.68;;;;;;;11.34;70.85;99575.47;18564417;32;20406;-58
2022/11/16 06:45:42;;;;;;;0.93;0.80;;;;;;;11.36;70.91;99574.56;18587191;31;20132;-57
2022/11/16 06:55:47;;;;;;;2.58;0.90;;;;;;;11.51;70.44;99568.16;18566622;32;20484;-58
2022/11/16 07:05:50;;;;;;;1.55;1.05;;;;;;;11.48;70.79;99564.75;18575826;31;20096;-57
2022/11/16 07:16:00;;;;;;;0.80;0.80;;;;;;;11.52;70.72;99548.97;18623070;31;20092;-57
2022/11/16 07:26:05;;;;;;;0.90;0.90;;;;;;;11.72;70.47;99550.31;18570007;31;20372;-58
2022/11/16 07:36:11;;;;;;;3.30;2.25;;;;;;;11.74;70.12;99548.53;18547931;31;20181;-57
2022/11/16 07:46:16;;;;;;;0.45;0.45;;;;;;;11.55;70.83;99534.13;18572034;31;20092;-58
2022/11/16 07:56:41;;;;;;;0.90;0.90;;;;;;;11.73;70.46;99525.91;18546819;31;20147;-58
2022/11/16 08:06:46;;;;;;;0.85;0.75;;;;;;;11.65;70.63;99533.03;18559589;31;20130;-58
2022/11/16 08:16:50;;;;;;;1.65;1.35;;;;;;;11.71;70.59;99516.34;18559675;31;20111;-57
2022/11/16 08:26:56;;;;;;;3.10;1.08;;;;;;;11.80;70.37;99510.94;18559445;32;20104;-58
2022/11/16 08:37:00;;;;;;;0.88;0.80;;;;;;;11.68;71.01;99500.75;18544536;32;20122;-57
2022/11/16 08:47:03;;;;;;;0.62;0.62;;;;;;;11.59;71.47;99491.34;18555300;31;158022;-58
2022/11/16 08:57:08;;;;;;;0.98;0.93;;;;;;;11.86;70.69;99495.12;18577046;31;20455;-58
2022/11/16 09:07:11;;;;;;;2.65;2.42;;;;;;;11.93;70.85;99501.94;18561724;31;20084;-58
2022/11/16 09:17:16;;;;;;;0.95;0.70;;;;;;;11.91;71.08;99508.09;18561410;31;20084;-58
2022/11/16 09:27:25;;;;;;;0.75;0.73;;;;;;;11.80;71.23;99495.25;18560115;32;20110;-58
2022/11/16 09:37:29;;;;;;;1.75;1.37;;;;;;;10.72;75.38;99478.19;18560879;32;20100;-57
2022/11/16 09:47:41;;;;;;;0.62;0.55;;;;;;;10.08;78.10;99475.72;18580163;31;20116;-58
2022/11/16 09:57:47;;;;;;;0.88;0.88;;;;;;;10.98;75.17;99473.38;18563056;31;20111;-58
2022/11/16 10:07:52;;;;;;;1.10;0.70;;;;;;;10.51;77.04;99446.38;18578656;31;20427;-59
2022/11/16 10:18:07;;;;;;;1.20;1.20;;;;;;;11.55;73.19;99438.28;18623716;31;20161;-58
2022/11/16 10:28:26;;;;;;;2.58;2.40;;;;;;;10.41;76.93;99427.38;18623690;31;20430;-57
2022/11/16 10:38:31;;;;;;;1.77;0.88;;;;;;;10.11;79.24;99410.50;18624059;31;20096;-58
2022/11/16 10:48:40;;;;;;;2.45;1.02;;;;;;;11.43;74.50;99396.72;18622001;31;20080;-57
2022/11/16 10:58:53;;;;;;;3.00;1.87;;;;;;;10.21;78.02;99382.50;18621656;31;20192;-58
2022/11/16 11:09:14;;;;;;;1.45;1.27;;;;;;;11.61;73.39;99369.31;18625432;31;20137;-58
2022/11/16 11:19:25;;;;;;;0.30;0.30;;;;;;;11.73;73.69;99363.78;18631369;31;20790;-58
2022/11/16 11:29:31;;;;;;;0.50;0.50;;;;;;;11.33;74.12;99354.25;18630700;31;20092;-57
2022/11/16 11:39:36;;;;;;;1.08;0.80;;;;;;;11.77;73.17;99327.97;18629763;31;20124;-58
2022/11/16 11:49:42;;;;;;;5.18;2.80;;;;;;;12.18;72.14;99309.56;18629502;31;20703;-58
2022/11/16 11:59:47;;;;;;;1.27;1.08;;;;;;;11.86;73.05;99300.78;18629007;31;20360;-58
2022/11/16 12:09:53;;;;;;;0.90;0.90;;;;;;;11.79;73.58;99298.28;18629683;31;20149;-58
2022/11/16 12:20:20;;;;;;;2.83;1.37;;;;;;;12.19;71.88;99300.81;18627316;31;20107;-58
2022/11/16 12:30:24;;;;;;;0.50;0.50;;;;;;;12.23;71.60;99299.81;18423010;32;20622;-58
2022/11/16 12:40:36;;;;;;;1.17;0.95;;;;;;;12.23;71.32;99294.59;18432724;32;20096;-58
2022/11/16 12:50:53;;;;;;;1.02;0.85;;;;;;;10.80;76.15;99287.47;18402191;32;20172;-58
2022/11/16 13:01:17;;;;;;;6.03;1.02;;;;;;;11.40;74.79;99282.69;18410364;32;20457;-58
2022/11/16 13:11:25;;;;;;;0.95;0.95;;;;;;;11.71;73.54;99263.63;18497413;31;20361;-59
2022/11/16 13:21:35;;;;;;;1.55;1.45;;;;;;;11.69;73.72;99254.09;18584120;31;20485;-58
2022/11/16 13:31:43;;;;;;;2.83;0.60;;;;;;;11.88;73.52;99257.13;18600142;31;20103;-58
2022/11/16 13:41:48;;;;;;;0.40;0.40;;;;;;;12.29;71.88;99257.78;18605761;31;20100;-58
2022/11/16 13:51:53;;;;;;;1.37;1.30;;;;;;;12.42;71.32;99260.94;18574597;31;20088;-58
2022/11/16 14:02:00;;;;;;;0.60;0.60;;;;;;;12.44;71.31;99250.44;18624996;31;20109;-58
2022/11/16 14:12:51;;;;;;;1.35;1.23;;;;;;;12.52;70.97;99248.47;18625574;31;20413;-58
2022/11/16 14:23:02;;;;;;;3.25;1.40;;;;;;;12.58;70.78;99240.41;18341542;32;20504;-58
2022/11/16 14:33:05;;;;;;;2.10;1.93;;;;;;;12.54;70.88;99236.19;18320132;32;20127;-58
2022/11/16 14:43:18;;;;;;;0.95;0.95;;;;;;;12.52;70.88;99221.41;18302489;32;20141;-58
2022/11/16 14:53:40;;;;;;;0.52;0.52;;;;;;;12.53;70.81;99223.13;18541087;31;20125;-59
2022/11/16 15:03:52;;;;;;;2.10;1.33;;;;;;;12.45;70.96;99224.19;18585265;31;20144;-60
2022/11/16 15:13:55;;;;;;;3.70;1.17;;;;;;;12.57;70.55;99209.06;18580866;31;20088;-60
2022/11/16 15:24:00;;;;;;;1.12;1.12;;;;;;;12.45;70.87;99205.03;18565265;32;20134;-60
2022/11/16 15:34:23;;;;;;;1.30;0.98;;;;;;;12.45;70.83;99199.78;18608218;31;20143;-60
2022/11/16 15:44:27;;;;;;;1.90;1.55;;;;;;;12.43;70.91;99188.53;18604661;31;20107;-60
2022/11/16 15:55:02;;;;;;;1.52;1.05;;;;;;;12.39;70.83;99187.75;18587979;31;20117;-60
2022/11/16 16:04:57;;;;;;;0.82;0.80;;;;;;;12.43;70.81;99191.13;18629687;31;20144;-60
2022/11/16 16:15:22;;;;;;;1.75;0.98;;;;;;;12.34;71.04;99177.41;18617050;31;20131;-60
2022/11/16 16:25:29;;;;;;;5.65;1.52;;;;;;;12.37;70.78;99175.59;18598295;31;20144;-60
2022/11/16 16:35:32;;;;;;;1.75;1.20;;;;;;;12.30;71.23;99175.78;18565592;31;20092;-61
2022/11/16 16:45:40;;;;;;;0.62;0.62;;;;;;;12.29;71.12;99173.22;18559124;31;20138;-61
2022/11/16 16:55:44;;;;;;;1.12;1.12;;;;;;;12.38;70.83;99161.63;18589274;31;20443;-60
2022/11/16 17:05:49;;;;;;;1.62;0.88;;;;;;;12.32;70.92;99158.25;18625432;31;20099;-60
2022/11/16 17:15:52;;;;;;;0.82;0.82;;;;;;;12.19;71.35;99162.16;18574954;31;20145;-60
2022/11/16 17:25:57;;;;;;;1.62;1.52;;;;;;;12.44;70.59;99153.59;18588408;31;20083;-61
2022/11/16 17:36:02;;;;;;;0.75;0.75;;;;;;;12.16;71.36;99157.84;18572992;31;20152;-60
2022/11/16 17:46:08;;;;;;;1.00;0.77;;;;;;;12.19;71.21;99154.31;18584692;31;20100;-60
2022/11/16 17:56:13;;;;;;;3.80;1.30;;;;;;;12.20;71.11;99149.03;18588930;31;20085;-60
2022/11/16 18:06:19;;;;;;;3.80;1.58;;;;;;;12.12;71.31;99140.53;18610589;31;20447;-60
2022/11/16 18:16:24;;;;;;;0.68;0.68;;;;;;;12.27;70.89;99130.53;18612360;31;20110;-60
2022/11/16 18:26:29;;;;;;;0.60;0.60;;;;;;;12.27;70.84;99123.53;18629490;31;20096;-60
2022/11/16 18:36:32;;;;;;;1.15;1.05;;;;;;;12.28;70.79;99125.25;18630566;31;20390;-60
2022/11/16 18:46:39;;;;;;;0.60;0.60;;;;;;;12.31;70.44;99112.06;18619233;31;20407;-60
2022/11/16 18:56:42;;;;;;;0.43;0.43;;;;;;;12.18;70.90;99118.59;18571319;31;20432;-60
2022/11/16 19:06:47;;;;;;;0.50;0.50;;;;;;;12.30;70.44;99118.22;18612281;31;20157;-60
2022/11/16 19:16:50;;;;;;;1.40;1.30;;;;;;;12.28;70.47;99119.16;18577934;31;20076;-60
2022/11/16 19:27:00;;;;;;;1.70;1.58;;;;;;;12.26;70.47;99127.06;18590575;31;20088;-60
2022/11/16 19:37:04;;;;;;;0.70;0.70;;;;;;;12.24;70.49;99113.19;18549790;31;20096;-60
2022/11/16 19:47:09;;;;;;;1.48;1.37;;;;;;;12.06;71.15;99118.03;18563006;32;20115;-60
2022/11/16 19:57:14;;;;;;;1.08;1.00;;;;;;;12.17;70.74;99111.63;18591620;31;20185;-60
2022/11/16 20:07:20;;;;;;;3.30;2.35;;;;;;;12.23;70.44;99092.28;18614549;31;20104;-60
2022/11/16 20:17:23;;;;;;;0.43;0.43;;;;;;;12.25;70.34;99093.97;18604120;31;20096;-58
2022/11/16 20:27:28;;;;;;;1.55;1.08;;;;;;;12.15;70.44;99111.66;18320215;32;20115;-58
2022/11/16 20:37:32;;;;;;;0.50;0.50;;;;;;;12.16;70.38;99112.53;18422817;32;20441;-59
2022/11/16 20:47:36;;;;;;;1.02;0.57;;;;;;;12.10;70.50;99099.63;18428492;32;20366;-58
2022/11/16 20:57:40;;;;;;;1.02;0.93;;;;;;;12.16;70.23;99086.37;18427657;32;20085;-59
2022/11/16 21:07:44;;;;;;;1.55;1.37;;;;;;;12.06;70.45;99070.97;18428597;32;20090;-58
2022/11/16 21:17:47;;;;;;;3.97;2.58;;;;;;;12.12;70.24;99069.06;18410681;32;20382;-58
2022/11/16 21:27:52;;;;;;;1.98;1.42;;;;;;;12.06;70.38;99075.31;18426200;32;20107;-58
2022/11/16 21:37:55;;;;;;;1.42;1.02;;;;;;;12.14;70.20;99080.31;18426588;32;20111;-58
2022/11/16 21:48:00;;;;;;;0.52;0.52;;;;;;;12.02;70.51;99077.16;18406630;32;20093;-58
2022/11/16 21:58:03;;;;;;;0.73;0.73;;;;;;;12.18;70.09;99056.63;18420908;32;20441;-58
2022/11/16 22:08:10;;;;;;;0.50;0.50;;;;;;;11.98;70.70;99028.44;18430112;32;20486;-58
2022/11/16 22:18:13;;;;;;;1.10;1.10;;;;;;;11.66;72.00;99011.94;18429242;32;20084;-58
2022/11/16 22:28:18;;;;;;;1.05;1.02;;;;;;;11.97;70.45;99013.66;18428768;32;20093;-58
2022/11/16 22:38:23;;;;;;;0.80;0.80;;;;;;;12.03;70.00;99017.87;18428040;32;20086;-58
2022/11/16 22:48:31;;;;;;;3.85;0.70;;;;;;;11.91;70.37;99038.25;18427678;32;20535;-58
2022/11/16 22:58:35;;;;;;;9.95;1.25;;;;;;;11.71;70.93;99046.66;18427255;32;20093;-58
2022/11/16 23:08:39;;;;;;;0.90;0.90;;;;;;;11.83;70.64;99024.53;18435667;32;20097;-58
2022/11/16 23:18:43;;;;;;;0.40;0.40;;;;;;;11.87;70.43;99035.75;18436056;32;20350;-58
2022/11/16 23:28:47;;;;;;;0.45;0.43;;;;;;;11.99;70.00;99024.94;18435730;32;20141;-58
2022/11/16 23:38:51;;;;;;;0.43;0.43;;;;;;;11.81;70.57;99008.03;18435318;32;20149;-58
2022/11/16 23:48:55;;;;;;;0.93;0.93;;;;;;;11.82;70.03;99014.97;18435067;32;20167;-58
2022/11/16 23:58:58;;;;;;;2.70;2.60;;;;;;;11.74;70.21;99024.81;18434830;32;20123;-58
